Time;durP1;ratioP1;P1;durP2;ratioP2;P2;SDS_P1;SDS_P2;PMS_P1;PMS_P2;Temp;Humidity;BMP_temperature;BMP_pressure;BME280_temperature;BME280_humidity;BME280_pressure;Samples;Min_cycle;Max_cycle;Signal;HPM_P1;HPM_P2
2022/04/03 00:00:03;;;;;;;16.13;8.63;;;;;;;;;;5056187;28;20111;-77
2022/04/03 00:02:28;;;;;;;17.85;9.07;;;;;;;;;;5055231;28;20393;-76
2022/04/03 00:04:53;;;;;;;15.40;7.93;;;;;;;;;;5037892;28;20037;-77
2022/04/03 00:07:19;;;;;;;16.25;8.13;;;;;;;;;;5038078;28;20041;-77
2022/04/03 00:09:44;;;;;;;15.48;8.43;;;;;;;;;;5055406;28;20025;-77
2022/04/03 00:12:10;;;;;;;18.88;8.65;;;;;;;;;;5055396;28;20028;-77
2022/04/03 00:14:36;;;;;;;15.95;8.65;;;;;;;;;;5055340;28;20075;-77
2022/04/03 00:17:01;;;;;;;14.15;8.32;;;;;;;;;;5055028;28;20039;-77
2022/04/03 00:19:27;;;;;;;18.73;8.02;;;;;;;;;;5055791;28;20027;-77
2022/04/03 00:21:52;;;;;;;13.85;7.95;;;;;;;;;;5055242;28;20024;-77
2022/04/03 00:24:17;;;;;;;15.38;7.95;;;;;;;;;;5055296;28;20067;-77
2022/04/03 00:26:43;;;;;;;12.68;7.95;;;;;;;;;;5054934;28;20029;-77
2022/04/03 00:29:09;;;;;;;13.43;7.57;;;;;;;;;;5055072;28;20068;-77
2022/04/03 00:31:35;;;;;;;14.93;8.25;;;;;;;;;;5054941;28;20438;-76
2022/04/03 00:34:00;;;;;;;13.75;7.75;;;;;;;;;;5037245;28;20478;-77
2022/04/03 00:36:26;;;;;;;15.82;8.40;;;;;;;;;;5055063;28;20037;-77
2022/04/03 00:38:51;;;;;;;12.40;7.93;;;;;;;;;;5054930;28;20102;-76
2022/04/03 00:41:17;;;;;;;13.85;7.80;;;;;;;;;;5055155;28;20139;-77
2022/04/03 00:43:43;;;;;;;13.63;8.10;;;;;;;;;;5036982;28;20037;-76
2022/04/03 00:46:10;;;;;;;15.57;8.50;;;;;;;;;;5036706;28;20033;-77
2022/04/03 00:48:35;;;;;;;14.45;7.85;;;;;;;;;;5036975;28;20128;-77
2022/04/03 00:51:01;;;;;;;19.25;8.40;;;;;;;;;;5037380;28;20071;-76
2022/04/03 00:53:26;;;;;;;15.85;8.30;;;;;;;;;;5054575;28;20037;-76
2022/04/03 00:55:52;;;;;;;12.77;7.82;;;;;;;;;;5055069;28;20502;-77
2022/04/03 00:58:17;;;;;;;14.10;7.70;;;;;;;;;;5054531;28;20413;-76
2022/04/03 01:00:43;;;;;;;13.98;7.78;;;;;;;;;;5037020;28;20033;-77
2022/04/03 01:03:09;;;;;;;13.05;7.05;;;;;;;;;;5054906;28;20147;-77
2022/04/03 01:05:36;;;;;;;11.57;7.22;;;;;;;;;;5054952;28;20120;-77
2022/04/03 01:08:02;;;;;;;12.65;7.47;;;;;;;;;;5054909;28;20335;-77
2022/04/03 01:10:27;;;;;;;12.27;7.35;;;;;;;;;;5054339;28;20107;-77
2022/04/03 01:12:52;;;;;;;12.50;7.78;;;;;;;;;;5054296;28;20507;-77
2022/04/03 01:15:18;;;;;;;13.02;8.02;;;;;;;;;;5054072;28;20029;-76
2022/04/03 01:17:44;;;;;;;11.98;7.45;;;;;;;;;;5054353;28;20124;-77
2022/04/03 01:20:10;;;;;;;13.45;7.72;;;;;;;;;;5054268;28;20036;-77
2022/04/03 01:22:36;;;;;;;15.48;8.55;;;;;;;;;;5036333;28;20028;-76
2022/04/03 01:25:01;;;;;;;14.95;8.27;;;;;;;;;;5054642;28;20472;-77
2022/04/03 01:27:27;;;;;;;17.88;8.32;;;;;;;;;;5036451;28;20025;-77
2022/04/03 01:29:52;;;;;;;14.57;8.68;;;;;;;;;;5053999;28;20032;-77
2022/04/03 01:32:21;;;;;;;15.18;8.43;;;;;;;;;;5053999;28;20036;-77
2022/04/03 01:34:46;;;;;;;14.98;8.65;;;;;;;;;;5053996;28;20031;-77
2022/04/03 01:37:12;;;;;;;14.25;8.15;;;;;;;;;;5053828;28;20021;-77
2022/04/03 01:39:37;;;;;;;16.70;8.07;;;;;;;;;;5053693;28;20052;-77
2022/04/03 01:42:03;;;;;;;19.98;7.95;;;;;;;;;;5053860;28;20080;-77
2022/04/03 01:44:28;;;;;;;14.20;8.25;;;;;;;;;;5053908;28;20040;-77
2022/04/03 01:46:54;;;;;;;12.43;7.03;;;;;;;;;;5053990;28;20389;-76
2022/04/03 01:49:19;;;;;;;11.95;7.50;;;;;;;;;;5053897;28;20017;-77
2022/04/03 01:51:45;;;;;;;11.40;6.95;;;;;;;;;;5054127;28;20323;-77
2022/04/03 01:54:10;;;;;;;10.38;6.60;;;;;;;;;;5053816;28;20041;-76
2022/04/03 01:56:36;;;;;;;14.77;7.25;;;;;;;;;;5035984;28;20112;-77
2022/04/03 01:59:02;;;;;;;13.15;7.60;;;;;;;;;;5053568;28;20028;-76
2022/04/03 02:01:30;;;;;;;11.10;6.88;;;;;;;;;;5036330;28;20024;-77
2022/04/03 02:03:55;;;;;;;13.10;7.38;;;;;;;;;;5053821;28;20037;-77
2022/04/03 02:06:20;;;;;;;12.63;7.28;;;;;;;;;;5053996;28;20033;-77
2022/04/03 02:08:46;;;;;;;14.48;7.63;;;;;;;;;;5053716;28;20461;-77
2022/04/03 02:11:11;;;;;;;12.95;6.55;;;;;;;;;;5053929;28;20143;-77
2022/04/03 02:13:37;;;;;;;15.90;6.82;;;;;;;;;;5053752;28;20056;-75
2022/04/03 02:16:03;;;;;;;12.68;7.10;;;;;;;;;;5053575;28;20028;-75
2022/04/03 02:18:28;;;;;;;14.18;7.07;;;;;;;;;;5053937;28;20112;-77
2022/04/03 02:20:54;;;;;;;12.10;6.53;;;;;;;;;;5053624;28;20025;-78
2022/04/03 02:23:19;;;;;;;11.15;7.18;;;;;;;;;;5053599;28;20397;-76
2022/04/03 02:25:45;;;;;;;13.32;6.22;;;;;;;;;;5019339;28;20029;-77
2022/04/03 02:28:12;;;;;;;11.07;6.68;;;;;;;;;;5053311;28;20021;-77
2022/04/03 02:30:37;;;;;;;13.40;6.90;;;;;;;;;;5053482;28;20437;-77
2022/04/03 02:33:03;;;;;;;13.65;6.80;;;;;;;;;;5053539;28;20029;-77
2022/04/03 02:35:28;;;;;;;13.15;6.50;;;;;;;;;;5035810;28;20032;-79
2022/04/03 02:37:54;;;;;;;11.13;6.70;;;;;;;;;;5053474;28;20048;-77
2022/04/03 02:40:19;;;;;;;14.23;7.35;;;;;;;;;;5035640;28;20025;-77
2022/04/03 02:42:45;;;;;;;13.23;6.95;;;;;;;;;;5053420;28;20032;-77
2022/04/03 02:45:11;;;;;;;22.17;7.75;;;;;;;;;;5053562;28;20039;-77
2022/04/03 02:47:36;;;;;;;13.07;8.13;;;;;;;;;;5035932;28;20091;-76
2022/04/03 02:50:03;;;;;;;16.20;8.02;;;;;;;;;;5037963;28;20365;-77
2022/04/03 02:52:28;;;;;;;16.85;9.00;;;;;;;;;;5039170;28;20446;-76
2022/04/03 02:54:54;;;;;;;18.58;9.30;;;;;;;;;;5056879;28;20033;-77
2022/04/03 02:57:19;;;;;;;17.70;9.50;;;;;;;;;;5056606;28;20029;-77
2022/04/03 02:59:45;;;;;;;15.85;8.32;;;;;;;;;;5056878;28;20369;-77
2022/04/03 03:02:11;;;;;;;20.73;8.60;;;;;;;;;;5057255;28;20021;-77
2022/04/03 03:04:36;;;;;;;15.02;7.85;;;;;;;;;;5023038;28;20129;-76
2022/04/03 03:07:04;;;;;;;12.05;6.85;;;;;;;;;;5038902;28;20029;-76
2022/04/03 03:09:29;;;;;;;18.05;7.28;;;;;;;;;;5057128;28;20381;-77
2022/04/03 03:11:55;;;;;;;14.70;7.45;;;;;;;;;;5056324;28;20033;-77
2022/04/03 03:14:21;;;;;;;16.70;7.25;;;;;;;;;;5056612;28;20039;-77
2022/04/03 03:16:47;;;;;;;13.23;7.40;;;;;;;;;;5056485;28;20056;-77
2022/04/03 03:19:13;;;;;;;18.73;7.95;;;;;;;;;;5056470;28;20029;-76
2022/04/03 03:21:38;;;;;;;13.80;7.63;;;;;;;;;;5056421;28;20078;-77
2022/04/03 03:24:04;;;;;;;15.30;6.63;;;;;;;;;;5056359;28;20099;-77
2022/04/03 03:26:29;;;;;;;16.48;8.18;;;;;;;;;;5056100;28;20033;-77
2022/04/03 03:28:54;;;;;;;14.90;7.78;;;;;;;;;;5056847;28;20123;-77
2022/04/03 03:31:20;;;;;;;15.65;8.02;;;;;;;;;;5056521;28;20029;-77
2022/04/03 03:33:48;;;;;;;17.45;8.80;;;;;;;;;;5038456;28;20071;-77
2022/04/03 03:36:13;;;;;;;16.35;8.50;;;;;;;;;;5056099;28;20033;-76
2022/04/03 03:38:40;;;;;;;18.35;9.15;;;;;;;;;;5056041;28;20032;-77
2022/04/03 03:41:05;;;;;;;18.98;8.65;;;;;;;;;;5055890;28;20493;-77
2022/04/03 03:43:31;;;;;;;18.00;9.00;;;;;;;;;;5038277;28;20119;-77
2022/04/03 03:45:56;;;;;;;16.88;8.82;;;;;;;;;;5055911;28;20366;-77
2022/04/03 03:48:22;;;;;;;19.63;9.77;;;;;;;;;;5056074;28;20029;-76
2022/04/03 03:50:48;;;;;;;17.45;9.70;;;;;;;;;;5055822;28;20036;-76
2022/04/03 03:53:13;;;;;;;17.70;10.32;;;;;;;;;;5055831;28;20032;-76
2022/04/03 03:55:39;;;;;;;22.80;10.73;;;;;;;;;;5055420;28;20052;-76
2022/04/03 03:58:04;;;;;;;21.70;11.73;;;;;;;;;;5037747;28;20037;-76
2022/04/03 04:00:30;;;;;;;22.08;11.15;;;;;;;;;;5055193;28;20039;-77
2022/04/03 04:02:56;;;;;;;21.75;12.40;;;;;;;;;;5055795;28;20143;-77
2022/04/03 04:05:22;;;;;;;24.20;11.90;;;;;;;;;;5038050;28;20029;-77
2022/04/03 04:07:48;;;;;;;22.17;12.55;;;;;;;;;;5057791;28;20032;-77
2022/04/03 04:10:14;;;;;;;26.50;12.98;;;;;;;;;;5054023;28;20029;-76
2022/04/03 04:12:43;;;;;;;29.50;13.57;;;;;;;;;;5037532;28;20079;-76
2022/04/03 04:15:09;;;;;;;24.83;11.45;;;;;;;;;;5055300;28;20025;-77
2022/04/03 04:17:40;;;;;;;18.98;10.95;;;;;;;;;;5055369;28;20062;-77
2022/04/03 04:20:07;;;;;;;17.60;9.80;;;;;;;;;;5037463;28;20054;-77
2022/04/03 04:22:33;;;;;;;20.53;9.43;;;;;;;;;;5055183;28;20032;-76
2022/04/03 04:24:58;;;;;;;16.38;8.52;;;;;;;;;;5055175;28;20029;-77
2022/04/03 04:27:24;;;;;;;15.32;8.82;;;;;;;;;;5055944;28;20158;-76
2022/04/03 04:29:49;;;;;;;15.32;8.65;;;;;;;;;;5055139;28;20021;-76
2022/04/03 04:32:15;;;;;;;15.38;8.68;;;;;;;;;;5055091;28;20447;-77
2022/04/03 04:34:40;;;;;;;15.98;8.57;;;;;;;;;;5055224;28;20036;-76
2022/04/03 04:37:07;;;;;;;16.33;8.93;;;;;;;;;;5055451;28;20025;-77
2022/04/03 04:39:32;;;;;;;17.55;9.13;;;;;;;;;;5054867;28;20426;-77
2022/04/03 04:41:58;;;;;;;14.50;7.95;;;;;;;;;;5054779;28;20040;-77
2022/04/03 04:44:23;;;;;;;16.88;9.00;;;;;;;;;;5054737;28;20464;-77
2022/04/03 04:46:49;;;;;;;15.20;8.13;;;;;;;;;;5055375;28;20362;-76
2022/04/03 04:49:16;;;;;;;18.13;9.18;;;;;;;;;;5055037;28;20112;-76
2022/04/03 04:51:43;;;;;;;17.23;9.75;;;;;;;;;;5054931;28;20055;-77
2022/04/03 04:54:08;;;;;;;23.60;11.45;;;;;;;;;;5054478;28;20055;-76
2022/04/03 04:56:34;;;;;;;19.80;11.00;;;;;;;;;;5054625;28;20060;-77
2022/04/03 04:59:00;;;;;;;27.33;11.90;;;;;;;;;;5054626;28;20532;-77
2022/04/03 05:01:25;;;;;;;25.92;13.57;;;;;;;;;;5054556;28;20456;-76
2022/04/03 05:03:51;;;;;;;27.52;13.95;;;;;;;;;;5054370;28;20468;-76
2022/04/03 05:06:16;;;;;;;30.05;14.20;;;;;;;;;;5054502;28;20021;-76
2022/04/03 05:08:43;;;;;;;33.90;16.52;;;;;;;;;;5036628;28;20032;-76
2022/04/03 05:11:08;;;;;;;32.40;16.98;;;;;;;;;;5036884;28;20025;-76
2022/04/03 05:13:34;;;;;;;43.13;24.73;;;;;;;;;;5054556;28;20029;-76
2022/04/03 05:15:59;;;;;;;37.08;19.13;;;;;;;;;;5036850;28;20032;-77
2022/04/03 05:18:25;;;;;;;83.13;44.28;;;;;;;;;;5054279;28;20025;-77
2022/04/03 05:20:50;;;;;;;52.92;27.10;;;;;;;;;;5036386;28;20117;-76
2022/04/03 05:23:18;;;;;;;47.33;24.65;;;;;;;;;;5036030;28;20098;-76
2022/04/03 05:25:43;;;;;;;40.13;20.83;;;;;;;;;;5036708;28;20519;-77
2022/04/03 05:28:09;;;;;;;47.28;23.60;;;;;;;;;;5036873;28;20032;-76
2022/04/03 05:30:35;;;;;;;37.80;18.42;;;;;;;;;;5055635;28;20055;-76
2022/04/03 05:33:00;;;;;;;39.13;20.05;;;;;;;;;;5054135;28;20449;-76
2022/04/03 05:35:26;;;;;;;39.15;18.63;;;;;;;;;;5054054;28;20036;-76
2022/04/03 05:37:51;;;;;;;32.88;17.55;;;;;;;;;;5054052;28;20063;-77
2022/04/03 05:40:19;;;;;;;41.60;23.25;;;;;;;;;;5036295;28;20032;-76
2022/04/03 05:42:44;;;;;;;44.63;21.20;;;;;;;;;;5053876;28;20028;-77
2022/04/03 05:45:10;;;;;;;37.22;21.10;;;;;;;;;;5054222;28;20365;-76
2022/04/03 05:47:35;;;;;;;35.17;18.35;;;;;;;;;;5036414;28;20382;-77
2022/04/03 05:50:01;;;;;;;33.60;17.73;;;;;;;;;;5054857;28;20539;-76
2022/04/03 05:52:26;;;;;;;32.25;16.88;;;;;;;;;;5053553;28;20451;-77
2022/04/03 05:54:52;;;;;;;32.58;16.77;;;;;;;;;;5036126;28;20029;-76
2022/04/03 05:57:17;;;;;;;32.92;17.38;;;;;;;;;;5053805;28;20025;-76
2022/04/03 05:59:43;;;;;;;35.28;17.88;;;;;;;;;;5053777;28;20060;-77
2022/04/03 06:02:11;;;;;;;36.78;17.17;;;;;;;;;;5053743;28;20079;-76
2022/04/03 06:04:36;;;;;;;31.60;16.98;;;;;;;;;;5035807;28;20029;-76
2022/04/03 06:07:02;;;;;;;126.45;67.00;;;;;;;;;;5054501;28;20028;-77
2022/04/03 06:09:27;;;;;;;38.75;19.70;;;;;;;;;;5053746;28;20032;-77
2022/04/03 06:11:52;;;;;;;52.83;32.22;;;;;;;;;;5053726;28;20024;-77
2022/04/03 06:14:18;;;;;;;38.78;22.92;;;;;;;;;;5053975;28;20410;-78
2022/04/03 06:16:43;;;;;;;44.60;24.73;;;;;;;;;;5053658;28;20071;-77
2022/04/03 06:19:09;;;;;;;36.00;20.30;;;;;;;;;;5053336;28;20091;-78
2022/04/03 06:21:34;;;;;;;32.45;17.77;;;;;;;;;;5053506;28;20031;-77
2022/04/03 06:24:00;;;;;;;32.85;17.23;;;;;;;;;;5054190;28;20124;-77
2022/04/03 06:26:25;;;;;;;29.77;17.08;;;;;;;;;;5057397;28;20032;-77
2022/04/03 06:28:51;;;;;;;32.33;16.65;;;;;;;;;;5057401;28;20404;-77
2022/04/03 06:31:16;;;;;;;30.73;17.25;;;;;;;;;;5058434;28;20036;-77
2022/04/03 06:33:42;;;;;;;28.10;16.52;;;;;;;;;;5057094;28;20108;-77
2022/04/03 06:36:07;;;;;;;30.45;15.35;;;;;;;;;;5057447;28;20016;-76
2022/04/03 06:38:32;;;;;;;27.00;14.32;;;;;;;;;;5057160;28;20040;-76
2022/04/03 06:40:58;;;;;;;24.80;13.57;;;;;;;;;;5057006;28;20049;-78
2022/04/03 06:43:27;;;;;;;24.85;14.00;;;;;;;;;;5057014;28;20123;-76
2022/04/03 06:45:52;;;;;;;24.70;13.90;;;;;;;;;;5057123;28;20434;-77
2022/04/03 06:48:18;;;;;;;24.85;13.85;;;;;;;;;;5038908;28;20025;-77
2022/04/03 06:50:43;;;;;;;24.27;14.07;;;;;;;;;;5057130;28;20033;-77
2022/04/03 06:53:09;;;;;;;21.20;12.98;;;;;;;;;;5058011;28;20438;-77
2022/04/03 06:55:34;;;;;;;24.40;15.05;;;;;;;;;;5056890;28;20029;-77
2022/04/03 06:58:00;;;;;;;35.17;19.50;;;;;;;;;;5056800;28;20032;-78
2022/04/03 07:00:26;;;;;;;22.98;14.15;;;;;;;;;;5055567;28;20389;-77
2022/04/03 07:02:51;;;;;;;25.70;15.32;;;;;;;;;;5038679;28;20036;-77
2022/04/03 07:05:17;;;;;;;27.83;16.40;;;;;;;;;;5056840;28;20029;-78
2022/04/03 07:07:43;;;;;;;24.10;14.75;;;;;;;;;;5038896;28;20063;-77
2022/04/03 07:10:09;;;;;;;26.25;14.93;;;;;;;;;;5056836;28;20060;-78
2022/04/03 07:12:35;;;;;;;18.25;13.02;;;;;;;;;;5056942;28;20033;-77
2022/04/03 07:15:01;;;;;;;20.67;12.95;;;;;;;;;;5038854;28;20402;-77
2022/04/03 07:17:27;;;;;;;18.25;12.15;;;;;;;;;;5056659;28;20040;-78
2022/04/03 07:19:52;;;;;;;19.85;12.90;;;;;;;;;;5056431;28;20025;-78
2022/04/03 07:22:18;;;;;;;12.23;8.63;;;;;;;;;;5056311;28;20033;-78
2022/04/03 07:24:43;;;;;;;14.75;9.25;;;;;;;;;;5056291;28;20041;-77
2022/04/03 07:27:08;;;;;;;15.60;9.40;;;;;;;;;;5056525;28;20029;-78
2022/04/03 07:29:34;;;;;;;12.88;8.48;;;;;;;;;;5038714;28;20044;-79
2022/04/03 07:32:00;;;;;;;15.45;9.30;;;;;;;;;;5039116;28;20040;-77
2022/04/03 07:34:25;;;;;;;19.10;9.60;;;;;;;;;;5056448;28;20044;-77
2022/04/03 07:36:51;;;;;;;15.95;9.70;;;;;;;;;;5054957;28;20467;-78
2022/04/03 07:39:16;;;;;;;15.07;9.98;;;;;;;;;;5054997;28;20025;-77
2022/04/03 07:41:42;;;;;;;13.38;9.63;;;;;;;;;;5055788;28;20428;-77
2022/04/03 07:44:08;;;;;;;11.35;8.43;;;;;;;;;;5038343;28;20040;-78
2022/04/03 07:46:34;;;;;;;15.30;10.25;;;;;;;;;;5038010;28;20079;-77
2022/04/03 07:49:00;;;;;;;14.88;8.80;;;;;;;;;;5055245;28;20044;-78
2022/04/03 07:51:27;;;;;;;12.65;8.40;;;;;;;;;;5056721;28;20031;-78
2022/04/03 07:53:53;;;;;;;10.82;7.75;;;;;;;;;;5058290;28;20047;-75
2022/04/03 07:56:18;;;;;;;16.27;9.60;;;;;;;;;;5055735;28;20501;-77
2022/04/03 07:58:44;;;;;;;14.88;9.52;;;;;;;;;;5055720;28;20033;-77
2022/04/03 08:01:09;;;;;;;17.50;9.13;;;;;;;;;;5055414;28;20035;-77
2022/04/03 08:03:35;;;;;;;15.20;9.13;;;;;;;;;;5055727;28;20347;-75
2022/04/03 08:06:00;;;;;;;12.52;7.82;;;;;;;;;;5056044;28;20051;-75
2022/04/03 08:08:26;;;;;;;13.93;8.95;;;;;;;;;;5055853;28;20529;-77
2022/04/03 08:10:51;;;;;;;19.92;10.07;;;;;;;;;;5055516;28;20380;-78
2022/04/03 08:13:18;;;;;;;22.73;12.80;;;;;;;;;;5056995;28;20036;-78
2022/04/03 08:15:43;;;;;;;19.27;11.43;;;;;;;;;;5043284;28;20028;-78
2022/04/03 08:18:09;;;;;;;16.85;9.93;;;;;;;;;;5037447;28;20095;-80
2022/04/03 08:20:34;;;;;;;15.18;8.90;;;;;;;;;;5055445;28;20025;-80
2022/04/03 08:23:03;;;;;;;12.35;8.45;;;;;;;;;;5054209;28;20059;-77
2022/04/03 08:25:36;;;;;;;24.80;16.25;;;;;;;;;;5038879;28;20498;-80
2022/04/03 08:28:01;;;;;;;20.48;11.82;;;;;;;;;;5037518;28;20051;-78
2022/04/03 08:30:31;;;;;;;16.88;10.63;;;;;;;;;;5053848;28;20489;-76
2022/04/03 08:32:57;;;;;;;;;;;;;;;;;;5039796;28;20009;-77
2022/04/03 08:35:24;;;;;;;15.75;10.82;;;;;;;;;;5040705;28;19919;-76
2022/04/03 08:37:50;;;;;;;18.83;12.35;;;;;;;;;;5037169;28;20029;-78
2022/04/03 08:40:16;;;;;;;19.30;13.27;;;;;;;;;;5054915;28;20082;-77
2022/04/03 08:42:42;;;;;;;16.23;10.70;;;;;;;;;;5037165;28;20029;-79
2022/04/03 08:45:11;;;;;;;27.13;17.75;;;;;;;;;;5036919;28;20516;-81
2022/04/03 08:47:50;;;;;;;15.82;10.50;;;;;;;;;;5053379;28;20021;-80
2022/04/03 08:50:16;;;;;;;22.20;14.80;;;;;;;;;;5053942;28;20083;-78
2022/04/03 08:52:47;;;;;;;27.88;15.90;;;;;;;;;;5053595;28;20021;-81
2022/04/03 08:55:13;;;;;;;17.38;10.88;;;;;;;;;;5039126;28;20028;-80
2022/04/03 08:57:38;;;;;;;17.42;11.52;;;;;;;;;;5036915;28;20021;-78
2022/04/03 09:00:05;;;;;;;16.50;9.80;;;;;;;;;;5053140;28;20020;-75
2022/04/03 09:02:31;;;;;;;14.02;9.77;;;;;;;;;;5036628;28;20065;-74
2022/04/03 09:04:56;;;;;;;16.23;10.05;;;;;;;;;;5053224;28;20052;-75
2022/04/03 09:07:22;;;;;;;14.85;9.82;;;;;;;;;;5054656;28;20029;-74
2022/04/03 09:10:17;;;;;;;17.08;9.45;;;;;;;;;;5054659;28;20055;-77
2022/04/03 09:12:44;;;;;;;14.95;9.93;;;;;;;;;;5053940;28;20037;-74
2022/04/03 09:15:14;;;;;;;16.77;9.27;;;;;;;;;;5054315;28;20454;-74
2022/04/03 09:17:52;;;;;;;9.93;6.72;;;;;;;;;;5054347;28;20036;-75
2022/04/03 09:20:26;;;;;;;13.30;8.05;;;;;;;;;;5054190;28;20482;-75
2022/04/03 09:22:56;;;;;;;12.63;8.55;;;;;;;;;;5036255;28;20032;-75
2022/04/03 09:25:40;;;;;;;13.73;7.82;;;;;;;;;;5036151;28;20040;-75
2022/04/03 09:28:09;;;;;;;14.25;8.60;;;;;;;;;;5036115;28;20032;-75
2022/04/03 09:30:39;;;;;;;18.90;10.75;;;;;;;;;;5054111;28;20032;-76
2022/04/03 09:33:06;;;;;;;13.20;9.45;;;;;;;;;;5036332;28;20039;-74
2022/04/03 09:35:52;;;;;;;14.63;9.60;;;;;;;;;;5055383;28;20450;-75
2022/04/03 09:38:18;;;;;;;13.65;9.68;;;;;;;;;;5053540;28;20143;-76
2022/04/03 09:40:45;;;;;;;16.95;10.65;;;;;;;;;;5053901;28;20114;-77
2022/04/03 09:43:14;;;;;;;14.55;10.20;;;;;;;;;;5053523;28;20043;-74
2022/04/03 09:45:46;;;;;;;15.60;12.23;;;;;;;;;;5053996;28;20427;-76
2022/04/03 09:48:28;;;;;;;14.43;9.77;;;;;;;;;;5036182;28;20044;-78
2022/04/03 09:50:58;;;;;;;15.43;9.00;;;;;;;;;;5052912;28;20025;-75
2022/04/03 09:53:24;;;;;;;13.50;8.68;;;;;;;;;;5036049;28;20028;-75
2022/04/03 09:55:50;;;;;;;15.60;9.20;;;;;;;;;;5036697;28;20436;-74
2022/04/03 09:58:16;;;;;;;14.75;8.70;;;;;;;;;;5055153;28;20025;-75
2022/04/03 10:00:42;;;;;;;15.50;8.90;;;;;;;;;;5056616;28;20450;-75
2022/04/03 10:03:09;;;;;;;12.88;7.72;;;;;;;;;;5057805;28;20029;-76
2022/04/03 10:05:35;;;;;;;15.07;8.55;;;;;;;;;;5056702;28;20086;-75
2022/04/03 10:08:02;;;;;;;15.95;7.95;;;;;;;;;;5056695;28;20025;-75
2022/04/03 10:10:35;;;;;;;14.32;8.48;;;;;;;;;;5056666;28;20024;-76
2022/04/03 10:13:00;;;;;;;12.43;8.27;;;;;;;;;;5039636;28;20029;-76
2022/04/03 10:15:26;;;;;;;19.25;7.93;;;;;;;;;;5057676;28;20025;-75
2022/04/03 10:17:51;;;;;;;11.30;7.80;;;;;;;;;;5039899;28;20036;-75
2022/04/03 10:20:17;;;;;;;13.77;8.25;;;;;;;;;;5057551;28;20029;-75
2022/04/03 10:22:45;;;;;;;12.98;8.38;;;;;;;;;;5057465;28;20033;-76
2022/04/03 10:25:13;;;;;;;11.43;8.32;;;;;;;;;;5039684;28;20159;-75
2022/04/03 10:27:39;;;;;;;13.88;8.77;;;;;;;;;;5057184;28;20052;-75
2022/04/03 10:30:06;;;;;;;14.90;8.63;;;;;;;;;;5056178;28;20528;-76
2022/04/03 10:32:36;;;;;;;13.07;8.73;;;;;;;;;;5056431;28;20029;-75
2022/04/03 10:35:09;;;;;;;14.23;9.30;;;;;;;;;;5039894;28;20524;-74
2022/04/03 10:37:39;;;;;;;15.55;8.55;;;;;;;;;;5061068;28;20382;-76
2022/04/03 10:40:13;;;;;;;18.25;8.43;;;;;;;;;;5057021;28;20477;-77
2022/04/03 10:42:56;;;;;;;14.23;9.25;;;;;;;;;;5039257;28;20033;-75
2022/04/03 10:45:25;;;;;;;13.38;8.63;;;;;;;;;;5057065;28;20055;-76
2022/04/03 10:47:51;;;;;;;14.15;8.30;;;;;;;;;;5055887;28;20438;-75
2022/04/03 10:50:17;;;;;;;13.68;9.38;;;;;;;;;;5055922;28;20025;-74
2022/04/03 10:52:43;;;;;;;14.30;8.88;;;;;;;;;;5039201;28;20032;-75
2022/04/03 10:55:17;;;;;;;15.15;8.88;;;;;;;;;;5056720;28;20021;-75
2022/04/03 10:57:44;;;;;;;14.55;8.68;;;;;;;;;;5056952;28;20029;-75
2022/04/03 11:00:11;;;;;;;14.40;9.23;;;;;;;;;;5057786;28;20040;-75
2022/04/03 11:02:37;;;;;;;14.98;9.15;;;;;;;;;;5056845;28;20029;-75
2022/04/03 11:05:21;;;;;;;16.90;8.48;;;;;;;;;;5056631;28;20361;-76
2022/04/03 11:07:50;;;;;;;14.02;8.82;;;;;;;;;;5056947;28;20036;-75
2022/04/03 11:10:54;;;;;;;14.50;9.27;;;;;;;;;;5056277;28;20504;-74
2022/04/03 11:13:22;;;;;;;16.95;9.00;;;;;;;;;;5056643;28;20048;-75
2022/04/03 11:15:54;;;;;;;16.83;9.63;;;;;;;;;;5056617;28;20436;-74
2022/04/03 11:18:48;;;;;;;16.52;9.40;;;;;;;;;;5055565;28;20025;-77
2022/04/03 11:21:21;;;;;;;14.73;8.38;;;;;;;;;;5050643;28;20044;-76
2022/04/03 11:23:49;;;;;;;17.70;9.80;;;;;;;;;;5056608;28;20489;-77
2022/04/03 11:26:15;;;;;;;20.85;9.15;;;;;;;;;;5038510;28;20351;-76
2022/04/03 11:28:42;;;;;;;13.75;8.73;;;;;;;;;;5056523;28;20151;-76
2022/04/03 11:31:07;;;;;;;14.82;9.00;;;;;;;;;;5038878;28;20470;-76
2022/04/03 11:33:33;;;;;;;15.32;8.93;;;;;;;;;;5056175;28;20033;-77
2022/04/03 11:36:06;;;;;;;13.65;10.02;;;;;;;;;;5055293;28;20102;-77
2022/04/03 11:38:42;;;;;;;17.08;9.85;;;;;;;;;;5054947;28;20029;-76
2022/04/03 11:41:11;;;;;;;14.32;9.75;;;;;;;;;;5056269;28;20036;-75
2022/04/03 11:43:37;;;;;;;15.85;9.05;;;;;;;;;;5056318;28;20111;-77
2022/04/03 11:46:03;;;;;;;14.73;8.23;;;;;;;;;;5055968;28;20123;-77
2022/04/03 11:48:30;;;;;;;13.63;7.45;;;;;;;;;;5054899;28;20083;-77
2022/04/03 11:51:09;;;;;;;11.20;7.85;;;;;;;;;;5054780;28;20049;-76
2022/04/03 11:53:35;;;;;;;12.35;7.70;;;;;;;;;;5055566;28;20115;-76
2022/04/03 11:56:16;;;;;;;12.30;8.85;;;;;;;;;;5056083;28;20105;-76
2022/04/03 11:58:54;;;;;;;13.93;8.25;;;;;;;;;;5054861;28;20039;-77
2022/04/03 12:01:24;;;;;;;11.32;7.82;;;;;;;;;;5056763;28;20028;-77
2022/04/03 12:04:08;;;;;;;14.05;8.32;;;;;;;;;;5055613;28;20056;-77
2022/04/03 12:06:35;;;;;;;13.85;7.45;;;;;;;;;;5038093;28;20044;-76
2022/04/03 12:09:08;;;;;;;17.75;9.00;;;;;;;;;;5037548;28;20116;-75
2022/04/03 12:11:34;;;;;;;17.25;9.82;;;;;;;;;;5055770;28;20103;-77
2022/04/03 12:14:01;;;;;;;14.93;9.23;;;;;;;;;;5055539;28;20029;-76
2022/04/03 12:16:37;;;;;;;13.63;8.40;;;;;;;;;;5054219;28;20032;-76
2022/04/03 12:19:04;;;;;;;14.02;7.80;;;;;;;;;;5054472;28;20441;-77
2022/04/03 12:21:40;;;;;;;18.70;10.48;;;;;;;;;;5037400;28;20370;-77
2022/04/03 12:24:07;;;;;;;20.88;11.55;;;;;;;;;;5054010;28;20044;-77
2022/04/03 12:26:33;;;;;;;17.13;9.23;;;;;;;;;;5054535;28;20112;-77
2022/04/03 12:28:58;;;;;;;14.63;9.25;;;;;;;;;;5055149;28;20087;-76
2022/04/03 12:31:30;;;;;;;14.32;9.55;;;;;;;;;;5055182;28;20029;-76
2022/04/03 12:34:12;;;;;;;16.23;9.60;;;;;;;;;;5055056;28;20438;-75
2022/04/03 12:36:48;;;;;;;17.55;10.52;;;;;;;;;;5053666;28;20029;-78
2022/04/03 12:39:42;;;;;;;14.52;8.77;;;;;;;;;;5037465;28;20071;-76
2022/04/03 12:42:32;;;;;;;17.92;9.80;;;;;;;;;;5054868;28;20056;-77
2022/04/03 12:45:12;;;;;;;16.50;10.35;;;;;;;;;;5055004;28;20029;-76
2022/04/03 12:47:38;;;;;;;16.52;10.10;;;;;;;;;;5055054;28;20091;-76
2022/04/03 12:50:05;;;;;;;19.80;10.27;;;;;;;;;;5036931;28;20131;-76
2022/04/03 12:52:43;;;;;;;16.98;10.10;;;;;;;;;;5055058;28;20034;-75
2022/04/03 12:55:28;;;;;;;21.95;10.40;;;;;;;;;;5054680;28;20078;-77
2022/04/03 13:00:51;;;;;;;17.10;10.70;;;;;;;;;;5056842;28;20036;-78
2022/04/03 13:03:32;;;;;;;17.92;11.00;;;;;;;;;;5056025;28;20064;-76
2022/04/03 13:06:00;;;;;;;20.75;10.13;;;;;;;;;;5056061;28;20033;-76
2022/04/03 13:08:44;;;;;;;16.45;10.48;;;;;;;;;;5055536;28;20021;-76
2022/04/03 13:11:10;;;;;;;17.85;10.70;;;;;;;;;;5056159;28;20025;-76
2022/04/03 13:13:37;;;;;;;16.17;9.48;;;;;;;;;;5054093;28;20508;-75
2022/04/03 13:16:03;;;;;;;13.75;8.13;;;;;;;;;;5054436;28;20091;-76
2022/04/03 13:18:28;;;;;;;16.92;10.18;;;;;;;;;;5054332;28;20024;-76
2022/04/03 13:20:55;;;;;;;16.52;10.48;;;;;;;;;;5036472;28;20141;-76
2022/04/03 13:23:21;;;;;;;15.23;9.88;;;;;;;;;;5054639;28;20369;-75
2022/04/03 13:25:47;;;;;;;18.50;8.25;;;;;;;;;;5054213;28;20021;-77
2022/04/03 13:28:13;;;;;;;16.17;9.18;;;;;;;;;;5036389;28;20370;-76
2022/04/03 13:30:39;;;;;;;21.80;12.82;;;;;;;;;;5054140;28;20028;-76
2022/04/03 13:33:04;;;;;;;20.42;11.80;;;;;;;;;;5053529;28;20021;-76
2022/04/03 13:35:30;;;;;;;18.90;11.43;;;;;;;;;;5053366;28;20103;-76
2022/04/03 13:37:55;;;;;;;18.92;11.57;;;;;;;;;;5052802;28;20029;-75
2022/04/03 13:40:21;;;;;;;17.17;11.23;;;;;;;;;;5053973;28;20059;-74
2022/04/03 13:42:47;;;;;;;20.25;10.25;;;;;;;;;;5052906;28;20025;-76
2022/04/03 13:45:12;;;;;;;16.25;10.18;;;;;;;;;;5053969;28;20044;-78
2022/04/03 13:47:38;;;;;;;21.05;10.57;;;;;;;;;;5053993;28;20531;-76
2022/04/03 13:50:04;;;;;;;21.20;11.32;;;;;;;;;;5053733;28;20361;-76
2022/04/03 13:52:29;;;;;;;13.48;9.27;;;;;;;;;;5053900;28;20024;-76
2022/04/03 13:54:57;;;;;;;16.25;10.23;;;;;;;;;;5052768;28;20032;-76
2022/04/03 13:57:22;;;;;;;27.10;14.45;;;;;;;;;;5053748;28;20025;-77
2022/04/03 13:59:48;;;;;;;20.40;11.88;;;;;;;;;;5053848;28;20031;-76
2022/04/03 14:02:14;;;;;;;18.48;9.65;;;;;;;;;;5053818;28;20338;-76
2022/04/03 14:04:39;;;;;;;25.85;12.07;;;;;;;;;;5035764;28;20091;-76
2022/04/03 14:07:05;;;;;;;17.77;11.68;;;;;;;;;;5054299;28;20033;-75
2022/04/03 14:09:30;;;;;;;19.77;12.15;;;;;;;;;;5053722;28;20086;-76
2022/04/03 14:11:56;;;;;;;23.00;11.93;;;;;;;;;;5053737;28;20031;-75
2022/04/03 14:14:21;;;;;;;26.90;14.73;;;;;;;;;;5053724;28;20424;-76
2022/04/03 14:16:47;;;;;;;28.95;15.13;;;;;;;;;;5035770;28;20028;-75
2022/04/03 14:19:12;;;;;;;44.75;27.63;;;;;;;;;;5052167;28;20024;-76
2022/04/03 14:21:39;;;;;;;36.65;21.70;;;;;;;;;;5053554;28;20031;-75
2022/04/03 14:24:06;;;;;;;32.78;17.38;;;;;;;;;;5053755;28;20060;-75
2022/04/03 14:26:31;;;;;;;22.75;14.60;;;;;;;;;;5052384;28;20033;-75
2022/04/03 14:28:57;;;;;;;23.95;13.60;;;;;;;;;;5052388;28;20021;-76